Raleigh County Memorial Airport
KBKW : now visible

Airfield :











YOU CAN JOIN US ON...

 
LOGIN :

Register | Disclaimer

   EN    FR    IT 

 









Legend :    VFR   Marginal VFR   IFR   Intensive IFR   Very Intensive IFR
Visi :
Ceiling :
>= 8 km
>= 3000ft
5 to 8 km
1000 to 3000 ft
1500m to 5 km
500 to 1000 ft
800 to 1500m
200 to 500 ft
< 800m
< 200 ft
Symbols :   Thunderstorms  Fog  Heavy snow  Heavy precipitations  Wind > 20 kt






- Airport Elevation : 2504 ft
- IATA code : BKW


KBKW - Raleigh County Memorial

CURRENT METAR :
  • 272151Z AUTO 26005KT 10SM CLR 08/03 A3006 RMK AO2 SLP189 T00830033 TSNO

EXPIRED METARs :
  • 272051Z AUTO 25007KT 10SM CLR 10/04 A3005 RMK AO2 SLP183 T01000039 56015 TSNO

TAF KBKW
Valid from the 27 at 21:00 until the 28 at 18:00 UTC


272051Z 2721/2818 28005KT P6SM BKN035
FM280600 VRB03KT P6SM BKN015
FM281000 30004KT P6SM BKN025
FM281200 30005KT P6SM OVC013
FM281700 31007KT P6SM SCT020
KZID FIR / North America



MET'MAP, your aeronautical weather chart ! - Copyright ORBIFLY December 2007 - Disclaimer

ORBIFLY MET'MAP TEAM :

Programming & Development : Alexandra Zaïnal
Concept & original design : Baudouin d'Aumeries
Assistance for programming : Marc-Olivier Méhu
Technical & hardware support : Manuel Goepfert

Contact : metmap@orbifly.com




SOURCES & CREDITS :

   NOAA       Earth
Advisory